sensor_id;sensor_type;location;lat;lon;timestamp;pressure;altitude;pressure_sealevel;temperature;humidity
76484;BME280;65318;-33.924;18.406;2022-11-23T00:00:12;100081.18;;;27.71;32.92
76484;BME280;65318;-33.924;18.406;2022-11-23T00:02:37;100079.02;;;27.85;32.77
76484;BME280;65318;-33.924;18.406;2022-11-23T00:05:02;100079.93;;;27.13;33.28
76484;BME280;65318;-33.924;18.406;2022-11-23T00:07:28;100075.63;;;27.27;33.60
76484;BME280;65318;-33.924;18.406;2022-11-23T00:09:53;100072.53;;;27.21;33.24
76484;BME280;65318;-33.924;18.406;2022-11-23T00:12:19;100064.28;;;27.71;33.00
76484;BME280;65318;-33.924;18.406;2022-11-23T00:14:44;100058.78;;;27.32;33.11
76484;BME280;65318;-33.924;18.406;2022-11-23T00:17:10;100056.83;;;27.92;32.99
76484;BME280;65318;-33.924;18.406;2022-11-23T00:19:35;100054.29;;;27.10;33.66
76484;BME280;65318;-33.924;18.406;2022-11-23T00:22:01;100050.00;;;27.31;33.43
76484;BME280;65318;-33.924;18.406;2022-11-23T00:24:27;100045.00;;;27.26;33.50
76484;BME280;65318;-33.924;18.406;2022-11-23T00:26:52;100039.65;;;26.87;33.92
76484;BME280;65318;-33.924;18.406;2022-11-23T00:29:18;100033.26;;;27.33;33.28
76484;BME280;65318;-33.924;18.406;2022-11-23T00:31:43;100031.25;;;26.61;33.69
76484;BME280;65318;-33.924;18.406;2022-11-23T00:34:09;100027.71;;;27.75;33.32
76484;BME280;65318;-33.924;18.406;2022-11-23T00:36:39;100022.65;;;27.56;33.31
76484;BME280;65318;-33.924;18.406;2022-11-23T00:39:00;100016.24;;;27.65;33.42
76484;BME280;65318;-33.924;18.406;2022-11-23T00:41:27;100013.74;;;27.19;33.48
76484;BME280;65318;-33.924;18.406;2022-11-23T00:43:50;100015.58;;;27.93;33.29
76484;BME280;65318;-33.924;18.406;2022-11-23T00:46:18;100013.31;;;27.18;34.03
76484;BME280;65318;-33.924;18.406;2022-11-23T00:48:49;100013.45;;;27.58;33.63
76484;BME280;65318;-33.924;18.406;2022-11-23T00:51:15;100016.04;;;27.53;33.70
76484;BME280;65318;-33.924;18.406;2022-11-23T00:53:33;100015.91;;;27.26;33.55
76484;BME280;65318;-33.924;18.406;2022-11-23T00:55:59;100013.80;;;27.57;33.69
76484;BME280;65318;-33.924;18.406;2022-11-23T00:58:25;100009.91;;;27.40;33.61
76484;BME280;65318;-33.924;18.406;2022-11-23T01:00:49;100005.78;;;27.57;33.65
76484;BME280;65318;-33.924;18.406;2022-11-23T01:03:15;100001.18;;;27.63;33.62
76484;BME280;65318;-33.924;18.406;2022-11-23T01:05:41;99993.89;;;27.24;33.82
76484;BME280;65318;-33.924;18.406;2022-11-23T01:08:07;99993.58;;;27.59;33.68
76484;BME280;65318;-33.924;18.406;2022-11-23T01:10:32;99991.38;;;27.56;33.71
76484;BME280;65318;-33.924;18.406;2022-11-23T01:12:59;99988.30;;;26.68;34.36
76484;BME280;65318;-33.924;18.406;2022-11-23T01:15:23;99987.08;;;26.79;34.27
76484;BME280;65318;-33.924;18.406;2022-11-23T01:17:48;99983.49;;;27.06;34.03
76484;BME280;65318;-33.924;18.406;2022-11-23T01:20:14;99982.33;;;27.30;33.98
76484;BME280;65318;-33.924;18.406;2022-11-23T01:22:39;99982.38;;;27.13;34.15
76484;BME280;65318;-33.924;18.406;2022-11-23T01:25:06;99980.71;;;26.82;34.52
76484;BME280;65318;-33.924;18.406;2022-11-23T01:27:30;99978.24;;;27.44;33.88
76484;BME280;65318;-33.924;18.406;2022-11-23T01:29:56;99973.33;;;27.18;34.17
76484;BME280;65318;-33.924;18.406;2022-11-23T01:32:21;99970.86;;;27.35;33.96
76484;BME280;65318;-33.924;18.406;2022-11-23T01:34:46;99968.23;;;27.28;34.06
76484;BME280;65318;-33.924;18.406;2022-11-23T01:37:12;99961.98;;;27.30;34.07
76484;BME280;65318;-33.924;18.406;2022-11-23T01:39:37;99961.78;;;26.33;35.03
76484;BME280;65318;-33.924;18.406;2022-11-23T01:42:03;99963.84;;;27.23;34.15
76484;BME280;65318;-33.924;18.406;2022-11-23T01:44:30;99961.76;;;27.02;34.36
76484;BME280;65318;-33.924;18.406;2022-11-23T01:46:56;99960.98;;;27.02;34.31
76484;BME280;65318;-33.924;18.406;2022-11-23T01:49:20;99956.16;;;27.01;34.35
76484;BME280;65318;-33.924;18.406;2022-11-23T01:51:49;99952.34;;;26.74;34.74
76484;BME280;65318;-33.924;18.406;2022-11-23T01:54:14;99953.76;;;26.98;34.45
76484;BME280;65318;-33.924;18.406;2022-11-23T01:56:38;99952.25;;;27.22;34.22
76484;BME280;65318;-33.924;18.406;2022-11-23T01:59:06;99955.95;;;27.41;34.15
76484;BME280;65318;-33.924;18.406;2022-11-23T02:01:28;99957.72;;;26.43;34.73
76484;BME280;65318;-33.924;18.406;2022-11-23T02:03:55;99951.98;;;26.67;34.31
76484;BME280;65318;-33.924;18.406;2022-11-23T02:06:19;99954.54;;;27.41;33.75
76484;BME280;65318;-33.924;18.406;2022-11-23T02:08:43;99951.42;;;26.90;34.14
76484;BME280;65318;-33.924;18.406;2022-11-23T02:11:09;99953.87;;;26.72;34.52
76484;BME280;65318;-33.924;18.406;2022-11-23T02:13:34;99956.33;;;26.83;34.18
76484;BME280;65318;-33.924;18.406;2022-11-23T02:15:59;99961.49;;;27.11;33.91
76484;BME280;65318;-33.924;18.406;2022-11-23T02:18:27;99959.41;;;26.97;34.06
76484;BME280;65318;-33.924;18.406;2022-11-23T02:20:50;99960.75;;;26.74;34.35
76484;BME280;65318;-33.924;18.406;2022-11-23T02:23:23;99966.01;;;27.07;34.39
76484;BME280;65318;-33.924;18.406;2022-11-23T02:25:50;99973.34;;;26.92;34.10
76484;BME280;65318;-33.924;18.406;2022-11-23T02:28:06;99967.34;;;26.70;34.76
76484;BME280;65318;-33.924;18.406;2022-11-23T02:30:33;99967.92;;;26.82;34.48
76484;BME280;65318;-33.924;18.406;2022-11-23T02:32:57;99967.96;;;27.06;34.36
76484;BME280;65318;-33.924;18.406;2022-11-23T02:35:23;99967.91;;;27.10;34.46
76484;BME280;65318;-33.924;18.406;2022-11-23T02:37:49;99974.87;;;26.68;35.06
76484;BME280;65318;-33.924;18.406;2022-11-23T02:40:22;99976.18;;;26.72;34.95
76484;BME280;65318;-33.924;18.406;2022-11-23T02:42:39;99977.09;;;27.36;34.47
76484;BME280;65318;-33.924;18.406;2022-11-23T02:45:11;99978.89;;;26.89;34.77
76484;BME280;65318;-33.924;18.406;2022-11-23T02:47:31;99979.80;;;26.50;35.02
76484;BME280;65318;-33.924;18.406;2022-11-23T02:49:56;99985.97;;;26.68;35.30
76484;BME280;65318;-33.924;18.406;2022-11-23T02:52:21;99990.32;;;26.77;35.06
76484;BME280;65318;-33.924;18.406;2022-11-23T02:54:47;99992.05;;;27.14;34.75
76484;BME280;65318;-33.924;18.406;2022-11-23T02:57:13;99992.61;;;26.78;35.20
76484;BME280;65318;-33.924;18.406;2022-11-23T02:59:38;99991.52;;;26.01;35.90
76484;BME280;65318;-33.924;18.406;2022-11-23T03:02:04;99994.38;;;26.61;35.32
76484;BME280;65318;-33.924;18.406;2022-11-23T03:04:29;100001.01;;;26.81;35.30
76484;BME280;65318;-33.924;18.406;2022-11-23T03:06:54;99998.57;;;26.24;36.00
76484;BME280;65318;-33.924;18.406;2022-11-23T03:09:20;99999.24;;;26.55;35.69
76484;BME280;65318;-33.924;18.406;2022-11-23T03:11:46;100001.24;;;27.04;35.14
76484;BME280;65318;-33.924;18.406;2022-11-23T03:14:11;100005.40;;;26.65;35.35
76484;BME280;65318;-33.924;18.406;2022-11-23T03:16:37;100008.67;;;26.28;35.80
76484;BME280;65318;-33.924;18.406;2022-11-23T03:19:03;100009.82;;;27.11;35.31
76484;BME280;65318;-33.924;18.406;2022-11-23T03:21:28;100009.50;;;26.91;35.37
76484;BME280;65318;-33.924;18.406;2022-11-23T03:23:55;100010.05;;;26.73;35.58
76484;BME280;65318;-33.924;18.406;2022-11-23T03:26:19;100014.74;;;26.77;35.77
76484;BME280;65318;-33.924;18.406;2022-11-23T03:28:44;100016.46;;;26.47;35.78
76484;BME280;65318;-33.924;18.406;2022-11-23T03:31:10;100020.06;;;26.48;35.62
76484;BME280;65318;-33.924;18.406;2022-11-23T03:33:35;100021.48;;;26.58;35.44
76484;BME280;65318;-33.924;18.406;2022-11-23T03:36:01;100025.40;;;26.94;35.36
76484;BME280;65318;-33.924;18.406;2022-11-23T03:38:27;100021.91;;;26.70;35.61
76484;BME280;65318;-33.924;18.406;2022-11-23T03:40:51;100031.13;;;26.47;35.71
76484;BME280;65318;-33.924;18.406;2022-11-23T03:43:17;100036.14;;;26.90;35.21
76484;BME280;65318;-33.924;18.406;2022-11-23T03:45:42;100041.58;;;27.14;35.25
76484;BME280;65318;-33.924;18.406;2022-11-23T03:48:09;100042.07;;;26.81;35.35
76484;BME280;65318;-33.924;18.406;2022-11-23T03:50:34;100047.36;;;26.84;35.38
76484;BME280;65318;-33.924;18.406;2022-11-23T03:52:59;100050.42;;;27.10;35.39
76484;BME280;65318;-33.924;18.406;2022-11-23T03:55:25;100064.09;;;26.48;36.01
76484;BME280;65318;-33.924;18.406;2022-11-23T03:57:50;100069.09;;;26.80;35.82
76484;BME280;65318;-33.924;18.406;2022-11-23T04:00:16;100077.58;;;27.08;35.50
76484;BME280;65318;-33.924;18.406;2022-11-23T04:02:42;100084.15;;;26.56;35.76
76484;BME280;65318;-33.924;18.406;2022-11-23T04:05:08;100089.95;;;26.85;35.96
76484;BME280;65318;-33.924;18.406;2022-11-23T04:07:32;100090.51;;;27.50;35.13
76484;BME280;65318;-33.924;18.406;2022-11-23T04:09:58;100091.19;;;27.39;34.93
76484;BME280;65318;-33.924;18.406;2022-11-23T04:12:23;100097.60;;;27.45;34.82
76484;BME280;65318;-33.924;18.406;2022-11-23T04:14:49;100105.52;;;26.96;35.37
76484;BME280;65318;-33.924;18.406;2022-11-23T04:17:14;100111.45;;;27.16;35.31
76484;BME280;65318;-33.924;18.406;2022-11-23T04:19:40;100110.31;;;27.06;35.21
76484;BME280;65318;-33.924;18.406;2022-11-23T04:22:05;100113.66;;;26.81;35.52
76484;BME280;65318;-33.924;18.406;2022-11-23T04:24:31;100118.31;;;26.72;35.75
76484;BME280;65318;-33.924;18.406;2022-11-23T04:26:56;100113.25;;;27.18;35.25
76484;BME280;65318;-33.924;18.406;2022-11-23T04:29:22;100114.62;;;27.35;35.03
76484;BME280;65318;-33.924;18.406;2022-11-23T04:31:48;100121.61;;;26.97;35.43
76484;BME280;65318;-33.924;18.406;2022-11-23T04:34:13;100114.46;;;26.75;35.47
76484;BME280;65318;-33.924;18.406;2022-11-23T04:36:39;100128.03;;;26.64;35.60
76484;BME280;65318;-33.924;18.406;2022-11-23T04:39:04;100129.37;;;26.08;34.94
76484;BME280;65318;-33.924;18.406;2022-11-23T04:41:30;100131.96;;;27.66;33.25
76484;BME280;65318;-33.924;18.406;2022-11-23T04:43:55;100130.49;;;28.81;32.54
76484;BME280;65318;-33.924;18.406;2022-11-23T04:46:21;100135.97;;;29.36;32.04
76484;BME280;65318;-33.924;18.406;2022-11-23T04:48:46;100133.85;;;29.93;31.60
76484;BME280;65318;-33.924;18.406;2022-11-23T04:51:12;100143.20;;;29.13;32.17
76484;BME280;65318;-33.924;18.406;2022-11-23T04:53:37;100145.03;;;29.45;31.70
76484;BME280;65318;-33.924;18.406;2022-11-23T04:56:03;100146.46;;;30.06;31.41
76484;BME280;65318;-33.924;18.406;2022-11-23T04:58:28;100146.32;;;29.72;31.66
76484;BME280;65318;-33.924;18.406;2022-11-23T05:00:55;100150.86;;;29.22;32.14
76484;BME280;65318;-33.924;18.406;2022-11-23T05:03:19;100157.27;;;27.77;34.00
76484;BME280;65318;-33.924;18.406;2022-11-23T05:05:45;100165.26;;;28.48;33.32
76484;BME280;65318;-33.924;18.406;2022-11-23T05:08:10;100155.76;;;29.39;32.50
76484;BME280;65318;-33.924;18.406;2022-11-23T05:10:36;100157.49;;;30.08;31.88
76484;BME280;65318;-33.924;18.406;2022-11-23T05:13:02;100166.91;;;29.98;31.77
76484;BME280;65318;-33.924;18.406;2022-11-23T05:15:27;100176.99;;;30.46;31.15
76484;BME280;65318;-33.924;18.406;2022-11-23T05:17:52;100180.34;;;29.91;31.87
76484;BME280;65318;-33.924;18.406;2022-11-23T05:20:18;100180.85;;;30.61;31.13
76484;BME280;65318;-33.924;18.406;2022-11-23T05:22:43;100189.85;;;29.57;31.97
76484;BME280;65318;-33.924;18.406;2022-11-23T05:25:09;100195.16;;;30.09;31.48
76484;BME280;65318;-33.924;18.406;2022-11-23T05:27:35;100202.30;;;28.94;32.89
76484;BME280;65318;-33.924;18.406;2022-11-23T05:30:00;100197.51;;;28.60;32.10
76484;BME280;65318;-33.924;18.406;2022-11-23T05:32:26;100197.48;;;30.14;31.49
76484;BME280;65318;-33.924;18.406;2022-11-23T05:34:51;100208.14;;;29.39;31.76
76484;BME280;65318;-33.924;18.406;2022-11-23T05:37:16;100196.12;;;30.28;31.33
76484;BME280;65318;-33.924;18.406;2022-11-23T05:39:42;100206.92;;;29.26;32.36
76484;BME280;65318;-33.924;18.406;2022-11-23T05:42:07;100203.58;;;29.15;32.55
76484;BME280;65318;-33.924;18.406;2022-11-23T05:44:33;100204.59;;;29.53;32.18
76484;BME280;65318;-33.924;18.406;2022-11-23T05:46:58;100209.46;;;29.41;32.33
76484;BME280;65318;-33.924;18.406;2022-11-23T05:49:24;100207.63;;;30.15;31.49
76484;BME280;65318;-33.924;18.406;2022-11-23T05:51:49;100211.75;;;30.08;31.40
76484;BME280;65318;-33.924;18.406;2022-11-23T05:54:15;100214.54;;;30.69;31.03
76484;BME280;65318;-33.924;18.406;2022-11-23T05:56:40;100220.47;;;30.58;30.88
76484;BME280;65318;-33.924;18.406;2022-11-23T05:59:06;100221.43;;;29.82;31.33
76484;BME280;65318;-33.924;18.406;2022-11-23T06:01:31;100221.93;;;29.26;32.32
76484;BME280;65318;-33.924;18.406;2022-11-23T06:03:57;100230.82;;;28.45;33.17
76484;BME280;65318;-33.924;18.406;2022-11-23T06:06:22;100232.08;;;28.02;33.41
76484;BME280;65318;-33.924;18.406;2022-11-23T06:08:47;100239.18;;;28.19;33.39
76484;BME280;65318;-33.924;18.406;2022-11-23T06:11:13;100238.60;;;28.98;32.42
76484;BME280;65318;-33.924;18.406;2022-11-23T06:13:39;100243.85;;;28.92;32.50
76484;BME280;65318;-33.924;18.406;2022-11-23T06:16:04;100248.33;;;30.22;31.25
76484;BME280;65318;-33.924;18.406;2022-11-23T06:18:29;100260.99;;;29.77;31.51
76484;BME280;65318;-33.924;18.406;2022-11-23T06:20:58;100253.84;;;29.55;30.54
76484;BME280;65318;-33.924;18.406;2022-11-23T06:23:20;100250.65;;;29.44;31.49
76484;BME280;65318;-33.924;18.406;2022-11-23T06:25:45;100262.30;;;29.23;32.13
76484;BME280;65318;-33.924;18.406;2022-11-23T06:28:11;100267.09;;;28.83;32.45
76484;BME280;65318;-33.924;18.406;2022-11-23T06:30:36;100274.06;;;28.17;33.22
76484;BME280;65318;-33.924;18.406;2022-11-23T06:33:03;100271.23;;;28.39;33.24
76484;BME280;65318;-33.924;18.406;2022-11-23T06:35:28;100272.74;;;28.73;32.82
76484;BME280;65318;-33.924;18.406;2022-11-23T06:37:53;100271.33;;;29.47;32.11
76484;BME280;65318;-33.924;18.406;2022-11-23T06:40:19;100269.82;;;29.02;32.22
76484;BME280;65318;-33.924;18.406;2022-11-23T06:42:44;100266.96;;;28.77;32.37
76484;BME280;65318;-33.924;18.406;2022-11-23T06:45:10;100264.48;;;28.78;32.56
76484;BME280;65318;-33.924;18.406;2022-11-23T06:47:35;100270.16;;;28.83;32.12
76484;BME280;65318;-33.924;18.406;2022-11-23T06:50:01;100279.36;;;28.35;32.75
76484;BME280;65318;-33.924;18.406;2022-11-23T06:52:26;100274.73;;;28.54;32.76
76484;BME280;65318;-33.924;18.406;2022-11-23T06:54:52;100268.54;;;28.65;32.61
76484;BME280;65318;-33.924;18.406;2022-11-23T06:57:17;100281.39;;;28.88;32.25
76484;BME280;65318;-33.924;18.406;2022-11-23T06:59:43;100272.01;;;27.79;33.27
76484;BME280;65318;-33.924;18.406;2022-11-23T07:02:09;100296.43;;;28.18;33.07
76484;BME280;65318;-33.924;18.406;2022-11-23T07:04:34;100279.75;;;28.17;33.15
76484;BME280;65318;-33.924;18.406;2022-11-23T07:06:59;100301.00;;;27.73;33.21
76484;BME280;65318;-33.924;18.406;2022-11-23T07:09:25;100285.88;;;27.85;33.32
76484;BME280;65318;-33.924;18.406;2022-11-23T07:11:50;100283.96;;;27.91;33.16
76484;BME280;65318;-33.924;18.406;2022-11-23T07:14:16;100306.99;;;28.08;33.20
76484;BME280;65318;-33.924;18.406;2022-11-23T07:16:41;100282.31;;;27.83;33.12
76484;BME280;65318;-33.924;18.406;2022-11-23T07:19:07;100277.58;;;27.74;33.35
76484;BME280;65318;-33.924;18.406;2022-11-23T07:21:32;100288.89;;;28.09;32.93
76484;BME280;65318;-33.924;18.406;2022-11-23T07:23:57;100286.71;;;27.96;33.00
76484;BME280;65318;-33.924;18.406;2022-11-23T07:26:23;100273.22;;;27.92;33.30
76484;BME280;65318;-33.924;18.406;2022-11-23T07:28:49;100266.88;;;28.10;33.19
76484;BME280;65318;-33.924;18.406;2022-11-23T07:31:14;100284.60;;;28.73;32.45
76484;BME280;65318;-33.924;18.406;2022-11-23T07:33:41;100315.90;;;28.29;32.86
76484;BME280;65318;-33.924;18.406;2022-11-23T07:36:05;100278.20;;;27.30;33.81
76484;BME280;65318;-33.924;18.406;2022-11-23T07:38:31;100270.42;;;28.32;32.53
76484;BME280;65318;-33.924;18.406;2022-11-23T07:40:56;100272.37;;;28.75;32.09
76484;BME280;65318;-33.924;18.406;2022-11-23T07:43:21;100283.62;;;29.01;31.88
76484;BME280;65318;-33.924;18.406;2022-11-23T07:45:47;100266.48;;;28.48;32.09
76484;BME280;65318;-33.924;18.406;2022-11-23T07:48:12;100288.31;;;28.20;32.39
76484;BME280;65318;-33.924;18.406;2022-11-23T07:50:38;100281.89;;;28.50;32.28
76484;BME280;65318;-33.924;18.406;2022-11-23T07:53:04;100277.29;;;28.40;32.00
76484;BME280;65318;-33.924;18.406;2022-11-23T07:55:29;100273.98;;;28.41;31.86
76484;BME280;65318;-33.924;18.406;2022-11-23T07:57:55;100243.56;;;28.53;31.25
76484;BME280;65318;-33.924;18.406;2022-11-23T08:00:20;100273.16;;;28.43;31.13
76484;BME280;65318;-33.924;18.406;2022-11-23T08:02:45;100270.38;;;28.23;31.64
76484;BME280;65318;-33.924;18.406;2022-11-23T08:05:11;100288.85;;;28.69;31.33
76484;BME280;65318;-33.924;18.406;2022-11-23T08:07:36;100279.37;;;28.15;31.54
76484;BME280;65318;-33.924;18.406;2022-11-23T08:10:02;100286.15;;;28.32;31.78
76484;BME280;65318;-33.924;18.406;2022-11-23T08:12:27;100282.07;;;28.34;31.90
76484;BME280;65318;-33.924;18.406;2022-11-23T08:14:53;100271.15;;;28.25;31.89
76484;BME280;65318;-33.924;18.406;2022-11-23T08:17:18;100288.19;;;28.27;32.05
76484;BME280;65318;-33.924;18.406;2022-11-23T08:19:44;100274.77;;;27.67;32.28
76484;BME280;65318;-33.924;18.406;2022-11-23T08:22:09;100261.69;;;28.09;32.05
76484;BME280;65318;-33.924;18.406;2022-11-23T08:24:35;100295.75;;;27.68;32.54
76484;BME280;65318;-33.924;18.406;2022-11-23T08:27:00;100290.00;;;28.00;32.46
76484;BME280;65318;-33.924;18.406;2022-11-23T08:29:26;100279.86;;;27.99;32.72
76484;BME280;65318;-33.924;18.406;2022-11-23T08:31:51;100294.59;;;27.52;32.99
76484;BME280;65318;-33.924;18.406;2022-11-23T08:34:16;100284.34;;;27.97;32.58
76484;BME280;65318;-33.924;18.406;2022-11-23T08:36:42;100272.70;;;27.48;32.91
76484;BME280;65318;-33.924;18.406;2022-11-23T08:39:08;100275.20;;;27.74;32.73
76484;BME280;65318;-33.924;18.406;2022-11-23T08:41:33;100284.96;;;27.66;32.71
76484;BME280;65318;-33.924;18.406;2022-11-23T08:43:59;100276.28;;;28.02;32.72
76484;BME280;65318;-33.924;18.406;2022-11-23T08:46:24;100262.21;;;28.62;32.10
76484;BME280;65318;-33.924;18.406;2022-11-23T08:48:49;100276.75;;;27.86;32.73
76484;BME280;65318;-33.924;18.406;2022-11-23T08:51:15;100291.16;;;28.36;32.27
76484;BME280;65318;-33.924;18.406;2022-11-23T08:53:40;100273.62;;;27.69;32.80
76484;BME280;65318;-33.924;18.406;2022-11-23T08:56:07;100263.12;;;27.77;32.60
76484;BME280;65318;-33.924;18.406;2022-11-23T08:58:31;100279.37;;;27.58;32.75
76484;BME280;65318;-33.924;18.406;2022-11-23T09:00:57;100279.00;;;27.95;32.46
76484;BME280;65318;-33.924;18.406;2022-11-23T09:03:23;100285.46;;;28.02;32.25
76484;BME280;65318;-33.924;18.406;2022-11-23T09:05:48;100278.15;;;27.89;32.34
76484;BME280;65318;-33.924;18.406;2022-11-23T09:08:13;100284.44;;;27.34;33.24
76484;BME280;65318;-33.924;18.406;2022-11-23T09:10:39;100275.67;;;27.72;32.81
76484;BME280;65318;-33.924;18.406;2022-11-23T09:13:05;100282.98;;;27.12;33.76
76484;BME280;65318;-33.924;18.406;2022-11-23T09:15:30;100301.42;;;27.66;33.09
76484;BME280;65318;-33.924;18.406;2022-11-23T09:17:56;100284.03;;;27.95;32.82
76484;BME280;65318;-33.924;18.406;2022-11-23T09:20:21;100293.12;;;27.99;33.13
76484;BME280;65318;-33.924;18.406;2022-11-23T09:22:50;100313.33;;;27.72;33.27
76484;BME280;65318;-33.924;18.406;2022-11-23T09:25:12;100266.66;;;28.09;32.94
76484;BME280;65318;-33.924;18.406;2022-11-23T09:27:38;100268.80;;;28.32;32.73
76484;BME280;65318;-33.924;18.406;2022-11-23T09:30:04;100278.06;;;28.50;32.56
76484;BME280;65318;-33.924;18.406;2022-11-23T09:32:29;100270.48;;;28.76;32.31
76484;BME280;65318;-33.924;18.406;2022-11-23T09:34:54;100295.34;;;28.84;32.09
76484;BME280;65318;-33.924;18.406;2022-11-23T09:37:20;100272.14;;;28.63;32.31
76484;BME280;65318;-33.924;18.406;2022-11-23T09:39:46;100280.61;;;28.66;32.57
76484;BME280;65318;-33.924;18.406;2022-11-23T09:42:23;100258.76;;;28.10;32.89
76484;BME280;65318;-33.924;18.406;2022-11-23T09:44:49;100257.69;;;28.26;32.68
76484;BME280;65318;-33.924;18.406;2022-11-23T09:47:13;100260.90;;;27.84;32.93
76484;BME280;65318;-33.924;18.406;2022-11-23T09:49:34;100260.52;;;28.51;32.81
76484;BME280;65318;-33.924;18.406;2022-11-23T09:51:55;100275.16;;;28.47;32.71
76484;BME280;65318;-33.924;18.406;2022-11-23T09:54:24;100263.71;;;28.14;32.99
76484;BME280;65318;-33.924;18.406;2022-11-23T09:56:44;100259.35;;;28.98;32.55
76484;BME280;65318;-33.924;18.406;2022-11-23T09:59:15;100265.97;;;28.98;32.26
76484;BME280;65318;-33.924;18.406;2022-11-23T10:01:35;100259.48;;;28.10;33.11
76484;BME280;65318;-33.924;18.406;2022-11-23T10:04:03;100238.80;;;28.59;32.65
76484;BME280;65318;-33.924;18.406;2022-11-23T10:06:28;100266.30;;;28.43;32.82
76484;BME280;65318;-33.924;18.406;2022-11-23T10:09:03;100271.27;;;29.01;32.21
76484;BME280;65318;-33.924;18.406;2022-11-23T10:11:33;100261.31;;;29.81;30.97
76484;BME280;65318;-33.924;18.406;2022-11-23T10:13:44;100272.13;;;29.23;30.97
76484;BME280;65318;-33.924;18.406;2022-11-23T10:16:19;100258.29;;;29.59;31.02
76484;BME280;65318;-33.924;18.406;2022-11-23T10:18:40;100231.42;;;29.75;31.25
76484;BME280;65318;-33.924;18.406;2022-11-23T10:21:05;100253.89;;;29.30;31.76
76484;BME280;65318;-33.924;18.406;2022-11-23T10:23:38;100254.36;;;28.58;32.04
76484;BME280;65318;-33.924;18.406;2022-11-23T10:25:51;100261.71;;;28.97;32.01
76484;BME280;65318;-33.924;18.406;2022-11-23T10:28:18;100260.84;;;28.89;32.05
76484;BME280;65318;-33.924;18.406;2022-11-23T10:30:41;100270.88;;;28.72;32.34
76484;BME280;65318;-33.924;18.406;2022-11-23T10:33:20;100273.69;;;29.11;32.18
76484;BME280;65318;-33.924;18.406;2022-11-23T10:35:34;100255.08;;;28.64;32.52
76484;BME280;65318;-33.924;18.406;2022-11-23T10:38:10;100267.35;;;29.14;32.56
76484;BME280;65318;-33.924;18.406;2022-11-23T10:40:26;100266.01;;;28.17;33.49
76484;BME280;65318;-33.924;18.406;2022-11-23T10:42:52;100268.00;;;28.22;33.62
76484;BME280;65318;-33.924;18.406;2022-11-23T10:45:21;100261.06;;;28.87;33.07
76484;BME280;65318;-33.924;18.406;2022-11-23T10:47:41;100239.26;;;29.23;32.70
76484;BME280;65318;-33.924;18.406;2022-11-23T10:52:31;100247.14;;;29.10;32.86
76484;BME280;65318;-33.924;18.406;2022-11-23T10:54:58;100225.04;;;28.96;33.22
76484;BME280;65318;-33.924;18.406;2022-11-23T10:57:29;100221.12;;;28.76;33.29
76484;BME280;65318;-33.924;18.406;2022-11-23T10:59:56;100264.53;;;28.99;33.65
76484;BME280;65318;-33.924;18.406;2022-11-23T11:02:17;100242.96;;;29.21;33.52
76484;BME280;65318;-33.924;18.406;2022-11-23T11:04:38;100245.42;;;28.46;33.65
76484;BME280;65318;-33.924;18.406;2022-11-23T11:07:10;100232.68;;;28.65;33.74
76484;BME280;65318;-33.924;18.406;2022-11-23T11:09:29;100258.39;;;29.03;33.61
76484;BME280;65318;-33.924;18.406;2022-11-23T11:11:55;100257.42;;;29.25;32.82
76484;BME280;65318;-33.924;18.406;2022-11-23T11:14:21;100250.00;;;28.43;33.56
76484;BME280;65318;-33.924;18.406;2022-11-23T11:16:49;100256.99;;;29.16;33.50
76484;BME280;65318;-33.924;18.406;2022-11-23T11:19:21;100241.97;;;28.79;33.53
76484;BME280;65318;-33.924;18.406;2022-11-23T11:21:41;100251.37;;;28.25;33.93
76484;BME280;65318;-33.924;18.406;2022-11-23T11:24:03;100249.41;;;27.83;34.33
76484;BME280;65318;-33.924;18.406;2022-11-23T11:26:29;100256.70;;;27.98;34.42
76484;BME280;65318;-33.924;18.406;2022-11-23T11:28:54;100237.27;;;27.71;35.03
76484;BME280;65318;-33.924;18.406;2022-11-23T11:31:25;100242.16;;;27.51;34.94
76484;BME280;65318;-33.924;18.406;2022-11-23T11:33:48;100235.28;;;27.94;34.78
76484;BME280;65318;-33.924;18.406;2022-11-23T11:36:11;100230.28;;;27.89;34.56
76484;BME280;65318;-33.924;18.406;2022-11-23T11:38:36;100230.71;;;27.80;34.87
76484;BME280;65318;-33.924;18.406;2022-11-23T11:41:04;100227.48;;;28.27;34.55
76484;BME280;65318;-33.924;18.406;2022-11-23T11:43:28;100240.20;;;27.49;35.45
76484;BME280;65318;-33.924;18.406;2022-11-23T11:45:52;100230.84;;;27.76;34.86
76484;BME280;65318;-33.924;18.406;2022-11-23T11:48:18;100206.56;;;28.25;34.56
76484;BME280;65318;-33.924;18.406;2022-11-23T11:50:48;100227.13;;;28.11;34.20
76484;BME280;65318;-33.924;18.406;2022-11-23T11:53:10;100230.08;;;27.85;34.79
76484;BME280;65318;-33.924;18.406;2022-11-23T11:55:45;100206.81;;;27.66;34.68
76484;BME280;65318;-33.924;18.406;2022-11-23T11:58:03;100216.94;;;27.02;35.64
76484;BME280;65318;-33.924;18.406;2022-11-23T12:00:23;100236.02;;;27.22;35.72
76484;BME280;65318;-33.924;18.406;2022-11-23T12:02:56;100210.51;;;27.16;35.43
76484;BME280;65318;-33.924;18.406;2022-11-23T12:05:19;100206.32;;;28.20;34.58
76484;BME280;65318;-33.924;18.406;2022-11-23T12:07:45;100241.10;;;27.67;34.92
76484;BME280;65318;-33.924;18.406;2022-11-23T12:10:11;100230.58;;;27.50;35.34
76484;BME280;65318;-33.924;18.406;2022-11-23T12:12:32;100221.49;;;28.20;34.54
76484;BME280;65318;-33.924;18.406;2022-11-23T12:14:56;100243.11;;;27.91;34.89
76484;BME280;65318;-33.924;18.406;2022-11-23T12:17:34;100213.43;;;28.08;35.09
76484;BME280;65318;-33.924;18.406;2022-11-23T12:19:53;100249.17;;;27.92;35.25
76484;BME280;65318;-33.924;18.406;2022-11-23T12:22:27;100213.25;;;28.65;34.17